Time;durP1;ratioP1;P1;durP2;ratioP2;P2;SDS_P1;SDS_P2;PMS_P1;PMS_P2;Temp;Humidity;BMP_temperature;BMP_pressure;BME280_temperature;BME280_humidity;BME280_pressure;Samples;Min_cycle;Max_cycle;Signal;HPM_P1;HPM_P2
2022/05/01 00:01:00;;;;;;;;;;;24.20;34.90;;;;;;5107382;28;19968;-65
2022/05/01 00:03:36;;;;;;;;;;;24.20;35.00;;;;;;5106551;28;19923;-65
2022/05/01 00:06:04;;;;;;;;;;;24.20;35.00;;;;;;5107702;28;19951;-65
2022/05/01 00:08:31;;;;;;;;;;;24.20;35.00;;;;;;5107135;28;20268;-65
2022/05/01 00:11:00;;;;;;;;;;;24.20;35.00;;;;;;5107453;28;19931;-65
2022/05/01 00:13:43;;;;;;;;;;;24.20;35.00;;;;;;5107042;28;20290;-65
2022/05/01 00:16:11;;;;;;;;;;;24.20;35.00;;;;;;5107066;28;19928;-65
2022/05/01 00:18:39;;;;;;;;;;;24.20;35.50;;;;;;5107659;28;20410;-65
2022/05/01 00:21:06;;;;;;;;;;;24.20;34.90;;;;;;5107460;28;19924;-65
2022/05/01 00:23:34;;;;;;;;;;;24.20;35.00;;;;;;5105645;28;19979;-65
2022/05/01 00:26:02;;;;;;;;;;;24.20;34.90;;;;;;5103930;28;20298;-65
2022/05/01 00:28:30;;;;;;;;;;;24.20;34.90;;;;;;5106932;28;19927;-65
2022/05/01 00:30:57;;;;;;;;;;;24.30;35.00;;;;;;5107446;28;20617;-65
2022/05/01 00:36:27;;;;;;;;;;;24.20;35.00;;;;;;5107546;28;19971;-65
2022/05/01 00:38:55;;;;;;;;;;;24.20;35.20;;;;;;5106564;28;19923;-65
2022/05/01 00:41:23;;;;;;;;;;;24.20;34.90;;;;;;5107479;28;19996;-65
2022/05/01 00:43:58;;;;;;;;;;;24.30;35.60;;;;;;5106683;28;19950;-65
2022/05/01 00:46:25;;;;;;;;;;;24.20;35.00;;;;;;5089434;28;20368;-65
2022/05/01 00:48:53;;;;;;;;;;;24.20;35.00;;;;;;5111392;28;19993;-65
2022/05/01 00:51:20;;;;;;;;;;;24.20;35.00;;;;;;5111548;28;19923;-65
2022/05/01 00:53:48;;;;;;;;;;;24.30;35.00;;;;;;5110816;28;20450;-65
2022/05/01 00:56:16;;;;;;;;;;;24.20;35.00;;;;;;5106744;28;19977;-65
2022/05/01 00:58:43;;;;;;;;;;;24.20;35.00;;;;;;5110478;28;19924;-65
2022/05/01 01:01:11;;;;;;;;;;;24.20;35.00;;;;;;5110860;28;19924;-66
2022/05/01 01:03:39;;;;;;;;;;;24.20;35.00;;;;;;5110469;28;20204;-65
2022/05/01 01:06:06;;;;;;;;;;;24.20;35.10;;;;;;5110995;28;20317;-65
2022/05/01 01:08:33;;;;;;;;;;;24.20;35.10;;;;;;5110291;28;20411;-65
2022/05/01 01:11:00;;;;;;;;;;;24.20;35.10;;;;;;5111305;28;19923;-65
2022/05/01 01:13:28;;;;;;;;;;;24.20;35.10;;;;;;5110262;28;19924;-65
2022/05/01 01:15:56;;;;;;;;;;;24.20;35.10;;;;;;5110217;28;19973;-65
2022/05/01 01:18:24;;;;;;;;;;;24.10;35.00;;;;;;5110786;28;19951;-65
2022/05/01 01:20:51;;;;;;;;;;;24.20;35.10;;;;;;5110972;28;19949;-65
2022/05/01 01:23:18;;;;;;;;;;;24.10;35.10;;;;;;5110823;28;19924;-65
2022/05/01 01:25:46;;;;;;;;;;;24.20;35.20;;;;;;5110268;28;19988;-65
2022/05/01 01:28:14;;;;;;;;;;;24.10;35.20;;;;;;5105397;28;19931;-65
2022/05/01 01:33:31;;;;;;;;;;;24.10;35.20;;;;;;5109723;28;20418;-65
2022/05/01 01:36:00;;;;;;;;;;;24.10;35.20;;;;;;5110975;28;19976;-65
2022/05/01 01:38:27;;;;;;;;;;;24.10;35.30;;;;;;5110023;28;19924;-65
2022/05/01 01:40:55;;;;;;;;;;;24.10;35.30;;;;;;5110263;28;19983;-66
2022/05/01 01:43:23;;;;;;;;;;;24.10;35.40;;;;;;5109833;28;20179;-65
2022/05/01 01:45:50;;;;;;;;;;;24.10;35.40;;;;;;5110087;28;20360;-65
2022/05/01 01:48:18;;;;;;;;;;;24.10;35.40;;;;;;5109704;28;19949;-65
2022/05/01 01:50:54;;;;;;;;;;;24.00;35.40;;;;;;5091397;28;20415;-65
2022/05/01 01:53:21;;;;;;;;;;;24.00;35.40;;;;;;5110078;28;19925;-65
2022/05/01 01:55:48;;;;;;;;;;;24.00;35.40;;;;;;5110435;28;19970;-65
2022/05/01 01:58:15;;;;;;;;;;;24.00;35.50;;;;;;5107680;28;20433;-65
2022/05/01 02:00:42;;;;;;;;;;;24.00;35.40;;;;;;5106892;28;19927;-65
2022/05/01 02:03:09;;;;;;;;;;;24.00;35.40;;;;;;5109460;28;19924;-65
2022/05/01 02:05:36;;;;;;;;;;;24.00;35.40;;;;;;5109572;28;19966;-65
2022/05/01 02:08:07;;;;;;;;;;;24.10;35.50;;;;;;5109716;28;20039;-65
2022/05/01 02:10:35;;;;;;;;;;;24.10;35.50;;;;;;5109572;28;19976;-65
2022/05/01 02:13:03;;;;;;;;;;;24.10;36.00;;;;;;5091200;28;19928;-65
2022/05/01 02:15:33;;;;;;;;;;;24.10;35.40;;;;;;5109155;28;19950;-65
2022/05/01 02:18:00;;;;;;;;;;;24.10;35.40;;;;;;5109895;28;20391;-65
2022/05/01 02:20:28;;;;;;;;;;;24.10;35.40;;;;;;5109605;28;19924;-65
2022/05/01 02:22:55;;;;;;;;;;;24.10;35.40;;;;;;5091275;28;20340;-65
2022/05/01 02:25:22;;;;;;;;;;;24.10;35.40;;;;;;5109122;28;19924;-65
2022/05/01 02:27:49;;;;;;;;;;;24.10;35.40;;;;;;5109267;28;19979;-65
2022/05/01 02:30:16;;;;;;;;;;;24.10;35.40;;;;;;5107533;28;20010;-65
2022/05/01 02:32:43;;;;;;;;;;;24.10;35.40;;;;;;5106519;28;19924;-65
2022/05/01 02:35:10;;;;;;;;;;;24.10;35.50;;;;;;5109035;28;20480;-65
2022/05/01 02:37:37;;;;;;;;;;;24.10;35.50;;;;;;5109238;28;19967;-65
2022/05/01 02:40:05;;;;;;;;;;;24.10;35.50;;;;;;5108127;28;20223;-65
2022/05/01 02:42:31;;;;;;;;;;;24.00;35.40;;;;;;5109525;28;20023;-65
2022/05/01 02:44:59;;;;;;;;;;;24.00;35.40;;;;;;5108172;28;19923;-65
2022/05/01 02:47:26;;;;;;;;;;;24.00;35.40;;;;;;5109326;28;19977;-65
2022/05/01 02:49:53;;;;;;;;;;;24.00;35.40;;;;;;5108617;28;19968;-65
2022/05/01 02:52:21;;;;;;;;;;;24.00;35.50;;;;;;5108706;28;20177;-65
2022/05/01 02:54:48;;;;;;;;;;;24.00;35.40;;;;;;5108898;28;19927;-65
2022/05/01 02:57:15;;;;;;;;;;;24.00;35.50;;;;;;5108769;28;20434;-65
2022/05/01 02:59:42;;;;;;;;;;;24.00;35.40;;;;;;5108776;28;19975;-65
2022/05/01 03:02:10;;;;;;;;;;;24.00;35.40;;;;;;5103610;28;20359;-66
2022/05/01 03:04:38;;;;;;;;;;;24.00;35.50;;;;;;5108018;28;20397;-65
2022/05/01 03:07:04;;;;;;;;;;;24.00;35.50;;;;;;5109043;28;19922;-65
2022/05/01 03:09:31;;;;;;;;;;;24.00;35.50;;;;;;5107240;28;19927;-65
2022/05/01 03:11:58;;;;;;;;;;;24.00;35.50;;;;;;5108316;28;20390;-65
2022/05/01 03:14:25;;;;;;;;;;;24.00;35.50;;;;;;5107980;28;19959;-65
2022/05/01 03:16:52;;;;;;;;;;;24.00;35.60;;;;;;5108687;28;20363;-65
2022/05/01 03:22:13;;;;;;;;;;;23.90;35.70;;;;;;5108456;28;19932;-65
2022/05/01 03:24:41;;;;;;;;;;;23.90;35.70;;;;;;5107968;28;20418;-65
2022/05/01 03:27:09;;;;;;;;;;;23.90;35.70;;;;;;5107825;28;20239;-65
2022/05/01 03:29:37;;;;;;;;;;;23.90;35.80;;;;;;5107720;28;20291;-65
2022/05/01 03:32:07;;;;;;;;;;;23.90;35.80;;;;;;5108383;28;19967;-65
2022/05/01 03:34:37;;;;;;;;;;;23.90;35.80;;;;;;5103212;28;20878;-65
2022/05/01 03:37:06;;;;;;;;;;;23.90;35.90;;;;;;5107766;28;20382;-65
2022/05/01 03:39:34;;;;;;;;;;;23.80;35.80;;;;;;5107471;28;19928;-65
2022/05/01 03:42:02;;;;;;;;;;;23.80;35.90;;;;;;5108007;28;20253;-65
2022/05/01 03:44:29;;;;;;;;;;;23.90;35.90;;;;;;5107437;28;20383;-65
2022/05/01 03:46:56;;;;;;;;;;;23.80;35.90;;;;;;5097234;28;19969;-65
2022/05/01 03:49:23;;;;;;;;;;;23.80;35.90;;;;;;5087458;28;19925;-65
2022/05/01 03:51:50;;;;;;;;;;;23.90;35.90;;;;;;5086974;28;20364;-65
2022/05/01 03:54:17;;;;;;;;;;;23.90;35.80;;;;;;5087443;28;20422;-65
2022/05/01 03:56:44;;;;;;;;;;;23.90;35.80;;;;;;5087445;28;19982;-66
2022/05/01 03:59:11;;;;;;;;;;;23.90;35.80;;;;;;5087083;28;19924;-65
2022/05/01 04:01:38;;;;;;;;;;;23.90;35.70;;;;;;5087335;28;19971;-65
2022/05/01 04:04:05;;;;;;;;;;;23.90;35.70;;;;;;5086508;28;19958;-66
2022/05/01 04:06:32;;;;;;;;;;;24.00;35.70;;;;;;5082407;28;19935;-66
2022/05/01 04:09:00;;;;;;;;;;;24.00;35.70;;;;;;5086864;28;19924;-65
2022/05/01 04:11:27;;;;;;;;;;;24.00;35.70;;;;;;5086821;28;19924;-65
2022/05/01 04:13:54;;;;;;;;;;;24.00;35.70;;;;;;5086819;28;20004;-65
2022/05/01 04:16:21;;;;;;;;;;;24.00;35.70;;;;;;5086545;28;20496;-65
2022/05/01 04:18:48;;;;;;;;;;;24.00;35.60;;;;;;5086970;28;19928;-65
2022/05/01 04:21:15;;;;;;;;;;;24.00;35.70;;;;;;5086493;28;19928;-65
2022/05/01 04:23:42;;;;;;;;;;;24.00;35.60;;;;;;5086919;28;19924;-65
2022/05/01 04:26:09;;;;;;;;;;;24.10;35.70;;;;;;5069076;28;19924;-65
2022/05/01 04:28:36;;;;;;;;;;;24.10;35.60;;;;;;5086490;28;19974;-65
2022/05/01 04:31:03;;;;;;;;;;;24.10;35.60;;;;;;5086782;28;20222;-65
2022/05/01 04:33:30;;;;;;;;;;;24.10;35.50;;;;;;5086734;28;19925;-65
2022/05/01 04:35:57;;;;;;;;;;;24.10;35.50;;;;;;5086489;28;19924;-65
2022/05/01 04:38:24;;;;;;;;;;;24.10;35.50;;;;;;5082044;28;20360;-65
2022/05/01 04:40:53;;;;;;;;;;;24.10;35.50;;;;;;5086377;28;20408;-65
2022/05/01 04:43:22;;;;;;;;;;;24.10;35.50;;;;;;5086937;28;20368;-65
2022/05/01 04:45:50;;;;;;;;;;;24.10;35.50;;;;;;5086524;28;19932;-65
2022/05/01 04:48:19;;;;;;;;;;;24.10;35.50;;;;;;5069236;28;19924;-65
2022/05/01 04:50:46;;;;;;;;;;;24.20;35.50;;;;;;5086513;28;19983;-65
2022/05/01 04:53:14;;;;;;;;;;;24.20;35.50;;;;;;5086177;28;19924;-65
2022/05/01 04:55:42;;;;;;;;;;;24.20;35.40;;;;;;5086640;28;19975;-65
2022/05/01 04:58:10;;;;;;;;;;;24.20;35.40;;;;;;5086108;28;20272;-65
2022/05/01 05:00:37;;;;;;;;;;;24.20;35.40;;;;;;5086737;28;19928;-65
2022/05/01 05:03:04;;;;;;;;;;;24.20;35.40;;;;;;5086422;28;19963;-65
2022/05/01 05:05:32;;;;;;;;;;;24.30;35.40;;;;;;5086361;28;20390;-66
2022/05/01 05:09:53;;;;;;;;;;;24.30;35.40;;;;;;5085384;28;20345;-65
2022/05/01 05:10:46;;;;;;;;;;;24.30;35.40;;;;;;5086077;28;19950;-65
2022/05/01 05:13:24;;;;;;;;;;;24.30;35.40;;;;;;5086325;28;20457;-65
2022/05/01 05:15:51;;;;;;;;;;;24.40;35.40;;;;;;5086412;28;19955;-65
2022/05/01 05:18:18;;;;;;;;;;;24.40;35.40;;;;;;5086284;28;19982;-65
2022/05/01 05:20:45;;;;;;;;;;;24.40;35.40;;;;;;5086571;28;20359;-65
2022/05/01 05:23:12;;;;;;;;;;;24.40;35.40;;;;;;5085865;28;19971;-65
2022/05/01 05:25:39;;;;;;;;;;;24.50;35.40;;;;;;5086502;28;19963;-65
2022/05/01 05:28:07;;;;;;;;;;;24.50;35.30;;;;;;5085766;28;19989;-65
2022/05/01 05:30:35;;;;;;;;;;;24.50;35.30;;;;;;5086197;28;19932;-65
2022/05/01 05:33:03;;;;;;;;;;;24.50;35.30;;;;;;5086545;28;20026;-65
2022/05/01 05:35:30;;;;;;;;;;;24.50;35.20;;;;;;5089379;28;20231;-66
2022/05/01 05:37:57;;;;;;;;;;;24.50;35.20;;;;;;5089956;28;20476;-66
2022/05/01 05:40:24;;;;;;;;;;;24.60;35.20;;;;;;5084992;28;20005;-65
2022/05/01 05:42:51;;;;;;;;;;;24.60;35.20;;;;;;5089470;28;19924;-65
2022/05/01 05:45:18;;;;;;;;;;;24.70;35.30;;;;;;5089737;28;19924;-65
2022/05/01 05:47:45;;;;;;;;;;;24.60;35.20;;;;;;5090139;28;19924;-66
2022/05/01 05:50:12;;;;;;;;;;;24.70;35.20;;;;;;5090030;28;19973;-65
2022/05/01 05:52:39;;;;;;;;;;;24.70;35.20;;;;;;5089115;28;19963;-65
2022/05/01 05:55:07;;;;;;;;;;;24.70;35.20;;;;;;5089529;28;19928;-65
2022/05/01 05:57:34;;;;;;;;;;;24.70;35.20;;;;;;5089456;28;19928;-66
2022/05/01 06:00:02;;;;;;;;;;;24.70;35.20;;;;;;5089545;28;19924;-65
2022/05/01 06:02:35;;;;;;;;;;;24.80;35.20;;;;;;5089521;28;20009;-66
2022/05/01 06:05:03;;;;;;;;;;;24.80;35.10;;;;;;5088820;28;20406;-65
2022/05/01 06:07:30;;;;;;;;;;;24.80;35.10;;;;;;5088975;28;19924;-65
2022/05/01 06:09:57;;;;;;;;;;;24.80;35.10;;;;;;5089288;28;19970;-65
2022/05/01 06:12:24;;;;;;;;;;;24.80;35.60;;;;;;5084813;28;19950;-65
2022/05/01 06:14:51;;;;;;;;;;;24.90;35.10;;;;;;5088741;28;19928;-65
2022/05/01 06:17:18;;;;;;;;;;;24.90;35.10;;;;;;5088470;28;19924;-65
2022/05/01 06:19:45;;;;;;;;;;;24.90;35.10;;;;;;5089482;28;20195;-66
2022/05/01 06:22:13;;;;;;;;;;;24.90;35.00;;;;;;5089035;28;19928;-65
2022/05/01 06:24:40;;;;;;;;;;;24.90;35.00;;;;;;5088729;28;19924;-66
2022/05/01 06:27:07;;;;;;;;;;;24.90;35.00;;;;;;5089175;28;20464;-65
2022/05/01 06:29:34;;;;;;;;;;;25.00;35.00;;;;;;5088668;28;19924;-65
2022/05/01 06:32:01;;;;;;;;;;;25.00;35.00;;;;;;5089097;28;20220;-66
2022/05/01 06:34:28;;;;;;;;;;;25.00;35.00;;;;;;5088214;28;20178;-65
2022/05/01 06:36:56;;;;;;;;;;;25.00;35.00;;;;;;5088984;28;20379;-65
2022/05/01 06:39:22;;;;;;;;;;;25.00;35.00;;;;;;5089243;28;19979;-65
2022/05/01 06:41:49;;;;;;;;;;;25.10;35.00;;;;;;5088220;28;19979;-65
2022/05/01 06:44:16;;;;;;;;;;;25.10;35.00;;;;;;5065997;28;20328;-65
2022/05/01 06:46:44;;;;;;;;;;;25.10;35.00;;;;;;5088224;28;20323;-65
2022/05/01 06:49:11;;;;;;;;;;;25.10;35.00;;;;;;5088323;28;19967;-65
2022/05/01 06:51:38;;;;;;;;;;;25.10;35.00;;;;;;5088451;28;19924;-65
2022/05/01 06:54:07;;;;;;;;;;;25.20;34.90;;;;;;5087580;28;19924;-65
2022/05/01 06:56:34;;;;;;;;;;;25.10;34.80;;;;;;5088990;28;19939;-65
2022/05/01 06:59:02;;;;;;;;;;;25.20;34.90;;;;;;5087969;28;19970;-65
2022/05/01 07:01:29;;;;;;;;;;;25.20;34.80;;;;;;5088819;28;20163;-65
2022/05/01 07:03:56;;;;;;;;;;;25.20;34.80;;;;;;5087694;28;19928;-66
2022/05/01 07:06:23;;;;;;;;;;;25.20;34.80;;;;;;5088311;28;19924;-65
2022/05/01 07:08:50;;;;;;;;;;;25.30;34.80;;;;;;5088915;28;19928;-65
2022/05/01 07:11:17;;;;;;;;;;;25.30;34.80;;;;;;5087606;28;20004;-65
2022/05/01 07:13:44;;;;;;;;;;;25.30;34.80;;;;;;5088028;28;19925;-68
2022/05/01 07:16:11;;;;;;;;;;;25.30;34.80;;;;;;5083838;28;19982;-65
2022/05/01 07:18:38;;;;;;;;;;;25.40;34.80;;;;;;5087321;28;20422;-65
2022/05/01 07:21:05;;;;;;;;;;;25.40;34.80;;;;;;5087951;28;19932;-65
2022/05/01 07:23:32;;;;;;;;;;;25.40;34.70;;;;;;5087705;28;20354;-65
2022/05/01 07:25:59;;;;;;;;;;;25.40;34.70;;;;;;5087857;28;19978;-66
2022/05/01 07:28:26;;;;;;;;;;;25.40;34.70;;;;;;5087703;28;19924;-66
2022/05/01 07:30:53;;;;;;;;;;;25.40;34.60;;;;;;5087620;28;20292;-65
2022/05/01 07:33:22;;;;;;;;;;;25.50;34.60;;;;;;5088395;28;19930;-65
2022/05/01 07:35:49;;;;;;;;;;;25.50;34.60;;;;;;5087454;28;19928;-66
2022/05/01 07:38:17;;;;;;;;;;;25.50;34.60;;;;;;5087797;28;19927;-65
2022/05/01 07:40:50;;;;;;;;;;;25.50;34.60;;;;;;5086554;28;19931;-65
2022/05/01 07:43:17;;;;;;;;;;;25.50;35.20;;;;;;5087025;28;20343;-65
2022/05/01 07:45:44;;;;;;;;;;;25.50;34.50;;;;;;5086586;28;19938;-66
2022/05/01 07:48:13;;;;;;;;;;;25.50;34.60;;;;;;5084637;28;19924;-65
2022/05/01 07:50:40;;;;;;;;;;;25.50;34.50;;;;;;5087690;28;19932;-65
2022/05/01 07:53:07;;;;;;;;;;;25.60;34.60;;;;;;5087057;28;19928;-65
2022/05/01 07:55:34;;;;;;;;;;;25.60;34.60;;;;;;5087078;28;20398;-65
2022/05/01 07:58:01;;;;;;;;;;;25.60;34.50;;;;;;5086878;28;19924;-66
2022/05/01 08:00:28;;;;;;;;;;;25.60;34.50;;;;;;5086745;28;20196;-65
2022/05/01 08:05:42;;;;;;;;;;;25.70;34.50;;;;;;5086513;28;20362;-66
2022/05/01 08:08:09;;;;;;;;;;;25.70;34.50;;;;;;5087541;28;19973;-66
2022/05/01 08:10:36;;;;;;;;;;;25.70;34.40;;;;;;5086846;28;19975;-65
2022/05/01 08:13:03;;;;;;;;;;;25.70;34.40;;;;;;5087051;28;20450;-66
2022/05/01 08:15:30;;;;;;;;;;;25.70;34.40;;;;;;5087006;28;20429;-65
2022/05/01 08:23:34;;;;;;;;;;;25.70;34.30;;;;;;5086722;28;19924;-66
2022/05/01 08:26:06;;;;;;;;;;;25.80;34.40;;;;;;5086703;28;20366;-66
2022/05/01 08:28:34;;;;;;;;;;;25.80;34.40;;;;;;5086589;28;20212;-66
2022/05/01 08:31:01;;;;;;;;;;;25.80;34.40;;;;;;5086576;28;19924;-66
2022/05/01 08:33:28;;;;;;;;;;;25.80;34.30;;;;;;5086944;28;19934;-65
2022/05/01 08:35:55;;;;;;;;;;;25.90;34.40;;;;;;5086747;28;20093;-66
2022/05/01 08:38:22;;;;;;;;;;;25.90;34.30;;;;;;5086960;28;19970;-66
2022/05/01 08:40:50;;;;;;;;;;;26.00;34.40;;;;;;5086858;28;19978;-66
2022/05/01 08:43:18;;;;;;;;;;;26.00;34.40;;;;;;5086344;28;20420;-65
2022/05/01 08:46:05;;;;;;;;;;;26.00;34.40;;;;;;5086853;28;20318;-66
2022/05/01 08:48:50;;;;;;;;;;;26.00;34.40;;;;;;5086456;28;19932;-66
2022/05/01 08:51:18;;;;;;;;;;;26.00;34.30;;;;;;5083214;28;19951;-66
2022/05/01 08:53:47;;;;;;;;;;;26.00;34.30;;;;;;5086685;28;20087;-66
2022/05/01 08:56:14;;;;;;;;;;;26.00;34.30;;;;;;5086767;28;19977;-66
2022/05/01 08:58:41;;;;;;;;;;;26.00;34.30;;;;;;5086822;28;20012;-65
2022/05/01 09:01:09;;;;;;;;;;;26.00;34.20;;;;;;5086082;28;19950;-66
2022/05/01 09:03:36;;;;;;;;;;;26.00;34.20;;;;;;5087149;28;20383;-66
2022/05/01 09:06:03;;;;;;;;;;;26.00;34.20;;;;;;5086038;28;20263;-66
2022/05/01 09:08:31;;;;;;;;;;;26.10;34.30;;;;;;5088828;28;19949;-66
2022/05/01 09:12:49;;;;;;;;;;;26.00;34.20;;;;;;5090721;28;19959;-65
2022/05/01 09:13:45;;;;;;;;;;;26.10;34.30;;;;;;5090406;28;20472;-65
2022/05/01 09:16:13;;;;;;;;;;;26.10;34.20;;;;;;5090462;28;19924;-66
2022/05/01 09:18:44;;;;;;;;;;;26.10;34.20;;;;;;5089531;28;19978;-65
2022/05/01 09:21:11;;;;;;;;;;;26.10;34.20;;;;;;5087825;28;19924;-66
2022/05/01 09:23:45;;;;;;;;;;;26.10;34.30;;;;;;5088917;28;19924;-66
2022/05/01 09:26:13;;;;;;;;;;;26.10;34.30;;;;;;5089611;28;20395;-66
2022/05/01 09:28:54;;;;;;;;;;;26.10;34.20;;;;;;5072071;28;20213;-66
2022/05/01 09:31:41;;;;;;;;;;;26.10;34.20;;;;;;5089793;28;19924;-66
2022/05/01 09:34:21;;;;;;;;;;;26.20;34.30;;;;;;5089931;28;19966;-66
2022/05/01 09:36:48;;;;;;;;;;;26.20;34.30;;;;;;5089585;28;20272;-66
2022/05/01 09:39:25;;;;;;;;;;;26.20;34.20;;;;;;5090454;28;19938;-66
2022/05/01 09:41:53;;;;;;;;;;;26.20;34.20;;;;;;5089414;28;19924;-66
2022/05/01 09:44:22;;;;;;;;;;;26.20;34.20;;;;;;5089767;28;19989;-66
2022/05/01 09:46:50;;;;;;;;;;;26.20;34.10;;;;;;5089599;28;19924;-65
2022/05/01 09:49:18;;;;;;;;;;;26.30;34.20;;;;;;5089969;28;19928;-66
2022/05/01 09:51:54;;;;;;;;;;;26.30;34.10;;;;;;5089748;28;19985;-66
2022/05/01 09:54:24;;;;;;;;;;;26.30;34.20;;;;;;5084849;28;19964;-66
2022/05/01 09:56:52;;;;;;;;;;;26.30;34.20;;;;;;5089644;28;19977;-66
2022/05/01 09:59:20;;;;;;;;;;;26.30;34.20;;;;;;5089641;28;20202;-66
2022/05/01 10:01:58;;;;;;;;;;;26.30;34.10;;;;;;5089034;28;20163;-66
2022/05/01 10:04:25;;;;;;;;;;;26.40;34.20;;;;;;5089815;28;20007;-66
2022/05/01 10:06:53;;;;;;;;;;;26.40;34.10;;;;;;5088819;28;19954;-66
2022/05/01 10:09:22;;;;;;;;;;;26.40;34.10;;;;;;5089368;28;20552;-66
2022/05/01 10:11:52;;;;;;;;;;;26.40;34.00;;;;;;5089021;28;19932;-66
2022/05/01 10:14:22;;;;;;;;;;;26.40;34.00;;;;;;5089010;28;20469;-66
2022/05/01 10:16:50;;;;;;;;;;;26.40;34.00;;;;;;5089138;28;19971;-66
2022/05/01 10:19:18;;;;;;;;;;;26.40;34.00;;;;;;5088874;28;19932;-66
2022/05/01 10:21:48;;;;;;;;;;;26.40;34.00;;;;;;5089258;28;20106;-66
2022/05/01 10:24:15;;;;;;;;;;;26.40;33.90;;;;;;5084309;28;19924;-68
2022/05/01 10:26:54;;;;;;;;;;;26.50;34.00;;;;;;5089182;28;20008;-66
2022/05/01 10:29:31;;;;;;;;;;;26.50;34.50;;;;;;5089177;28;19993;-66
2022/05/01 10:32:22;;;;;;;;;;;26.50;33.90;;;;;;5088567;28;20224;-66
2022/05/01 10:35:28;;;;;;;;;;;26.50;33.80;;;;;;5088852;28;19976;-66
2022/05/01 10:38:17;;;;;;;;;;;26.50;33.80;;;;;;5070643;28;19924;-66
2022/05/01 10:40:46;;;;;;;;;;;26.50;33.70;;;;;;5088600;28;19924;-66
2022/05/01 10:43:31;;;;;;;;;;;26.60;33.70;;;;;;5088742;28;19928;-66
2022/05/01 10:46:00;;;;;;;;;;;26.60;33.60;;;;;;5089145;28;19951;-66
2022/05/01 10:48:28;;;;;;;;;;;26.60;33.60;;;;;;5088835;28;20295;-66
2022/05/01 10:50:55;;;;;;;;;;;26.60;33.50;;;;;;5089056;28;19967;-66
2022/05/01 10:53:22;;;;;;;;;;;26.60;33.50;;;;;;5088279;28;19924;-66
2022/05/01 10:55:52;;;;;;;;;;;26.70;33.60;;;;;;5083691;28;19969;-66
2022/05/01 10:58:21;;;;;;;;;;;26.70;33.60;;;;;;5087941;28;19959;-66
2022/05/01 11:00:48;;;;;;;;;;;26.70;33.50;;;;;;5088319;28;20346;-66
2022/05/01 11:03:29;;;;;;;;;;;26.70;33.50;;;;;;5088421;28;19928;-66
2022/05/01 11:06:09;;;;;;;;;;;26.70;33.50;;;;;;5088449;28;19924;-66
2022/05/01 11:08:42;;;;;;;;;;;26.70;33.40;;;;;;5088134;28;19930;-66
2022/05/01 11:11:12;;;;;;;;;;;26.70;33.40;;;;;;5094894;28;19924;-66
2022/05/01 11:13:40;;;;;;;;;;;26.70;33.40;;;;;;5108144;28;19924;-66
2022/05/01 11:16:07;;;;;;;;;;;26.70;33.30;;;;;;5108668;28;19928;-66
2022/05/01 11:18:53;;;;;;;;;;;26.70;33.30;;;;;;5107867;28;19924;-66
2022/05/01 11:21:32;;;;;;;;;;;26.70;33.30;;;;;;5108947;28;19942;-66
2022/05/01 11:24:00;;;;;;;;;;;26.70;33.30;;;;;;5108254;28;19924;-66
2022/05/01 11:26:27;;;;;;;;;;;26.70;33.20;;;;;;5108316;28;19927;-66
2022/05/01 11:28:55;;;;;;;;;;;26.70;33.20;;;;;;5103260;28;19924;-66
2022/05/01 11:31:43;;;;;;;;;;;26.80;33.20;;;;;;5106761;28;19923;-66
2022/05/01 11:34:29;;;;;;;;;;;26.80;33.20;;;;;;5093160;28;20167;-66
2022/05/01 11:37:04;;;;;;;;;;;26.80;33.20;;;;;;5108140;28;20036;-66
2022/05/01 11:39:50;;;;;;;;;;;26.80;33.20;;;;;;5091323;28;19924;-66
2022/05/01 11:42:35;;;;;;;;;;;26.80;33.10;;;;;;5072454;28;19928;-66
2022/05/01 11:45:04;;;;;;;;;;;26.80;33.10;;;;;;5087524;28;19924;-66
2022/05/01 11:47:32;;;;;;;;;;;26.80;33.00;;;;;;5087571;28;19974;-66
2022/05/01 11:49:59;;;;;;;;;;;26.80;33.00;;;;;;5087117;28;19924;-66
2022/05/01 11:52:26;;;;;;;;;;;26.80;33.00;;;;;;5087302;28;20407;-66
2022/05/01 11:54:54;;;;;;;;;;;26.80;33.00;;;;;;5082872;28;19967;-66
2022/05/01 12:03:02;;;;;;;;;;;26.80;32.90;;;;;;5086802;28;20027;-66
2022/05/01 12:05:31;;;;;;;;;;;26.80;32.90;;;;;;5076383;28;19940;-65
2022/05/01 12:07:59;;;;;;;;;;;26.90;33.00;;;;;;5067220;28;19928;-65
2022/05/01 12:10:26;;;;;;;;;;;26.80;32.80;;;;;;5069232;28;19924;-66
2022/05/01 12:12:53;;;;;;;;;;;26.90;32.90;;;;;;5075658;28;20434;-65
2022/05/01 12:15:20;;;;;;;;;;;26.90;32.80;;;;;;5068512;28;19924;-65
2022/05/01 12:17:47;;;;;;;;;;;26.90;32.80;;;;;;5070335;28;20455;-65
2022/05/01 12:20:14;;;;;;;;;;;26.90;32.80;;;;;;5066727;28;19925;-66
2022/05/01 12:22:43;;;;;;;;;;;26.90;32.70;;;;;;5080891;28;20016;-66
2022/05/01 12:25:12;;;;;;;;;;;26.90;32.70;;;;;;5082072;28;19928;-66
2022/05/01 12:27:40;;;;;;;;;;;26.90;32.60;;;;;;5085290;28;19981;-66
2022/05/01 12:30:08;;;;;;;;;;;26.90;32.60;;;;;;5080330;28;19928;-66
2022/05/01 12:32:37;;;;;;;;;;;27.00;32.60;;;;;;5085652;28;20248;-67
2022/05/01 12:35:04;;;;;;;;;;;27.00;32.50;;;;;;5086673;28;19928;-65
2022/05/01 12:37:34;;;;;;;;;;;27.00;32.50;;;;;;5086696;28;19925;-66
2022/05/01 12:40:03;;;;;;;;;;;27.00;32.40;;;;;;5086507;28;19967;-66
2022/05/01 12:45:38;;;;;;;;;;;27.00;32.40;;;;;;5087472;28;19974;-66
2022/05/01 12:48:06;;;;;;;;;;;27.00;32.40;;;;;;5087484;28;20186;-66
2022/05/01 12:50:37;;;;;;;;;;;27.00;32.40;;;;;;5083204;28;20024;-66
2022/05/01 12:53:21;;;;;;;;;;;27.00;32.40;;;;;;5070507;28;20556;-65
2022/05/01 12:55:51;;;;;;;;;;;27.00;32.30;;;;;;5070911;28;19924;-65
2022/05/01 12:58:28;;;;;;;;;;;27.00;32.30;;;;;;5070647;28;20135;-65
2022/05/01 13:00:56;;;;;;;;;;;27.10;32.30;;;;;;5070433;28;19924;-66
2022/05/01 13:03:25;;;;;;;;;;;27.10;32.20;;;;;;5065673;28;19979;-66
2022/05/01 13:06:12;;;;;;;;;;;27.10;32.10;;;;;;5070424;28;19978;-66
2022/05/01 13:08:40;;;;;;;;;;;27.10;32.10;;;;;;5070203;28;20395;-66
2022/05/01 13:11:14;;;;;;;;;;;27.10;32.10;;;;;;5069612;28;19929;-66
2022/05/01 13:13:46;;;;;;;;;;;27.00;32.10;;;;;;5069639;28;19928;-65
2022/05/01 13:16:13;;;;;;;;;;;27.00;32.10;;;;;;5070762;28;20388;-66
2022/05/01 13:18:41;;;;;;;;;;;27.10;32.20;;;;;;5070058;28;20247;-66
2022/05/01 13:21:08;;;;;;;;;;;27.00;32.10;;;;;;5070121;28;19925;-66
2022/05/01 13:23:35;;;;;;;;;;;27.00;32.10;;;;;;5069851;28;19971;-65
2022/05/01 13:26:02;;;;;;;;;;;27.00;32.10;;;;;;5069919;28;19925;-66
2022/05/01 13:28:29;;;;;;;;;;;27.00;32.10;;;;;;5069492;28;20465;-66
2022/05/01 13:30:56;;;;;;;;;;;27.00;32.10;;;;;;5069391;28;20385;-66
2022/05/01 13:33:23;;;;;;;;;;;27.00;32.10;;;;;;5067427;28;20011;-66
2022/05/01 13:35:51;;;;;;;;;;;27.00;32.20;;;;;;5068475;28;19924;-66
2022/05/01 13:38:18;;;;;;;;;;;27.00;32.10;;;;;;5069727;28;20335;-66
2022/05/01 13:46:18;;;;;;;;;;;27.00;32.00;;;;;;5070293;28;19928;-66
2022/05/01 13:48:45;;;;;;;;;;;27.10;31.90;;;;;;5070047;28;19928;-66
2022/05/01 13:51:14;;;;;;;;;;;27.00;31.90;;;;;;5069225;28;20600;-66
2022/05/01 13:53:42;;;;;;;;;;;27.00;31.80;;;;;;5068984;28;20474;-65
2022/05/01 13:56:11;;;;;;;;;;;27.00;31.80;;;;;;5068293;28;19932;-66
2022/05/01 13:58:38;;;;;;;;;;;27.10;31.90;;;;;;5069629;28;19981;-66
2022/05/01 14:01:05;;;;;;;;;;;27.10;31.80;;;;;;5068393;28;19924;-66
2022/05/01 14:03:32;;;;;;;;;;;27.10;31.80;;;;;;5069383;28;19925;-66
2022/05/01 14:06:00;;;;;;;;;;;27.10;31.70;;;;;;5074283;28;19932;-66
2022/05/01 14:08:27;;;;;;;;;;;27.10;31.70;;;;;;5089507;28;19959;-65
2022/05/01 14:10:54;;;;;;;;;;;27.10;31.60;;;;;;5088650;28;20133;-66
2022/05/01 14:13:21;;;;;;;;;;;27.10;31.60;;;;;;5088942;28;19950;-65
2022/05/01 14:15:48;;;;;;;;;;;27.10;31.60;;;;;;5088948;28;19928;-65
2022/05/01 14:18:17;;;;;;;;;;;27.10;31.60;;;;;;5089084;28;19977;-66
2022/05/01 14:20:45;;;;;;;;;;;27.10;31.60;;;;;;5089007;28;19927;-66
2022/05/01 14:23:16;;;;;;;;;;;27.10;31.60;;;;;;5088972;28;19963;-66
2022/05/01 14:25:47;;;;;;;;;;;27.10;31.60;;;;;;5088625;28;19924;-66
2022/05/01 14:28:14;;;;;;;;;;;27.10;31.60;;;;;;5089018;28;19970;-66
2022/05/01 14:30:44;;;;;;;;;;;27.10;31.50;;;;;;5089179;28;19927;-66
2022/05/01 14:33:14;;;;;;;;;;;27.10;31.50;;;;;;5088866;28;19930;-66
2022/05/01 14:35:43;;;;;;;;;;;27.10;31.50;;;;;;5087255;28;20516;-66
2022/05/01 14:38:15;;;;;;;;;;;27.10;31.50;;;;;;5084267;28;19924;-66
2022/05/01 14:40:45;;;;;;;;;;;27.00;31.50;;;;;;5089136;28;20329;-66
2022/05/01 14:43:14;;;;;;;;;;;27.00;31.50;;;;;;5104485;28;19970;-66
2022/05/01 14:45:48;;;;;;;;;;;27.00;31.50;;;;;;5088747;28;20307;-66
2022/05/01 14:48:35;;;;;;;;;;;27.00;31.50;;;;;;5088916;28;19958;-66
2022/05/01 14:51:02;;;;;;;;;;;27.00;31.60;;;;;;5088517;28;19967;-66
2022/05/01 14:53:31;;;;;;;;;;;27.00;31.60;;;;;;5088989;28;20299;-66
2022/05/01 14:55:59;;;;;;;;;;;27.00;31.60;;;;;;5088179;28;19970;-68
2022/05/01 15:06:53;;;;;;;;;;;27.00;31.60;;;;;;5085661;28;20001;-66